sensor_id;sensor_type;location;lat;lon;timestamp;P1;durP1;ratioP1;P2;durP2;ratioP2
17935;SDS011;9093;52.062;4.508;2023-04-01T00:02:00;26.77;;;5.20;;
17935;SDS011;9093;52.062;4.508;2023-04-01T00:04:40;8.02;;;3.15;;
17935;SDS011;9093;52.062;4.508;2023-04-01T00:07:21;23.58;;;4.00;;
17935;SDS011;9093;52.062;4.508;2023-04-01T00:10:03;39.05;;;4.25;;
17935;SDS011;9093;52.062;4.508;2023-04-01T00:12:44;12.73;;;4.00;;
17935;SDS011;9093;52.062;4.508;2023-04-01T00:15:24;18.10;;;5.15;;
17935;SDS011;9093;52.062;4.508;2023-04-01T00:18:05;18.90;;;3.17;;
17935;SDS011;9093;52.062;4.508;2023-04-01T00:20:47;14.85;;;2.90;;
17935;SDS011;9093;52.062;4.508;2023-04-01T00:23:28;16.10;;;2.72;;
17935;SDS011;9093;52.062;4.508;2023-04-01T00:26:08;9.02;;;2.22;;
17935;SDS011;9093;52.062;4.508;2023-04-01T00:28:49;9.05;;;2.42;;
17935;SDS011;9093;52.062;4.508;2023-04-01T00:31:29;16.17;;;2.50;;
17935;SDS011;9093;52.062;4.508;2023-04-01T00:34:10;8.82;;;2.58;;
17935;SDS011;9093;52.062;4.508;2023-04-01T00:36:50;9.77;;;1.77;;
17935;SDS011;9093;52.062;4.508;2023-04-01T00:39:32;15.82;;;3.22;;
17935;SDS011;9093;52.062;4.508;2023-04-01T00:42:13;7.78;;;2.55;;
17935;SDS011;9093;52.062;4.508;2023-04-01T00:44:54;10.02;;;2.30;;
17935;SDS011;9093;52.062;4.508;2023-04-01T00:47:35;9.48;;;2.08;;
17935;SDS011;9093;52.062;4.508;2023-04-01T00:50:16;9.60;;;1.88;;
17935;SDS011;9093;52.062;4.508;2023-04-01T00:52:56;10.43;;;3.00;;
17935;SDS011;9093;52.062;4.508;2023-04-01T00:55:39;11.53;;;2.37;;
17935;SDS011;9093;52.062;4.508;2023-04-01T00:58:24;11.70;;;2.95;;
17935;SDS011;9093;52.062;4.508;2023-04-01T01:01:07;16.52;;;3.08;;
17935;SDS011;9093;52.062;4.508;2023-04-01T01:03:48;17.85;;;2.78;;
17935;SDS011;9093;52.062;4.508;2023-04-01T01:06:39;13.63;;;2.45;;
17935;SDS011;9093;52.062;4.508;2023-04-01T01:15:39;10.05;;;2.15;;
17935;SDS011;9093;52.062;4.508;2023-04-01T01:18:30;6.72;;;2.10;;
17935;SDS011;9093;52.062;4.508;2023-04-01T01:24:40;10.10;;;2.13;;
17935;SDS011;9093;52.062;4.508;2023-04-01T01:27:31;10.68;;;2.42;;
17935;SDS011;9093;52.062;4.508;2023-04-01T01:30:15;8.15;;;2.35;;
17935;SDS011;9093;52.062;4.508;2023-04-01T01:36:01;10.18;;;2.20;;
17935;SDS011;9093;52.062;4.508;2023-04-01T01:38:44;5.68;;;2.22;;
17935;SDS011;9093;52.062;4.508;2023-04-01T01:44:09;8.02;;;1.65;;
17935;SDS011;9093;52.062;4.508;2023-04-01T01:46:53;12.15;;;2.65;;
17935;SDS011;9093;52.062;4.508;2023-04-01T01:49:33;10.15;;;2.08;;
17935;SDS011;9093;52.062;4.508;2023-04-01T01:52:16;11.68;;;3.25;;
17935;SDS011;9093;52.062;4.508;2023-04-01T01:54:57;9.05;;;2.45;;
17935;SDS011;9093;52.062;4.508;2023-04-01T01:57:38;10.32;;;3.15;;
17935;SDS011;9093;52.062;4.508;2023-04-01T02:00:19;10.65;;;2.50;;
17935;SDS011;9093;52.062;4.508;2023-04-01T02:03:01;12.13;;;2.90;;
17935;SDS011;9093;52.062;4.508;2023-04-01T02:05:42;19.75;;;3.83;;
17935;SDS011;9093;52.062;4.508;2023-04-01T02:08:42;14.82;;;3.10;;
17935;SDS011;9093;52.062;4.508;2023-04-01T02:11:29;11.23;;;3.75;;
17935;SDS011;9093;52.062;4.508;2023-04-01T02:14:14;7.72;;;2.88;;
17935;SDS011;9093;52.062;4.508;2023-04-01T02:22:34;9.82;;;3.10;;
17935;SDS011;9093;52.062;4.508;2023-04-01T02:25:23;7.22;;;3.70;;
17935;SDS011;9093;52.062;4.508;2023-04-01T02:28:07;7.32;;;2.95;;
17935;SDS011;9093;52.062;4.508;2023-04-01T02:30:50;7.88;;;3.25;;
17935;SDS011;9093;52.062;4.508;2023-04-01T02:33:32;6.75;;;3.03;;
17935;SDS011;9093;52.062;4.508;2023-04-01T02:36:13;7.78;;;3.85;;
17935;SDS011;9093;52.062;4.508;2023-04-01T02:38:54;13.93;;;3.93;;
17935;SDS011;9093;52.062;4.508;2023-04-01T02:41:42;10.95;;;4.22;;
17935;SDS011;9093;52.062;4.508;2023-04-01T02:44:24;15.48;;;4.32;;
17935;SDS011;9093;52.062;4.508;2023-04-01T02:47:04;15.77;;;4.32;;
17935;SDS011;9093;52.062;4.508;2023-04-01T02:49:45;15.90;;;5.05;;
17935;SDS011;9093;52.062;4.508;2023-04-01T02:52:25;13.23;;;4.60;;
17935;SDS011;9093;52.062;4.508;2023-04-01T02:55:07;15.48;;;5.55;;
17935;SDS011;9093;52.062;4.508;2023-04-01T02:57:47;21.48;;;4.45;;
17935;SDS011;9093;52.062;4.508;2023-04-01T03:00:28;16.10;;;4.95;;
17935;SDS011;9093;52.062;4.508;2023-04-01T03:03:08;19.63;;;5.55;;
17935;SDS011;9093;52.062;4.508;2023-04-01T03:05:49;10.98;;;4.47;;
17935;SDS011;9093;52.062;4.508;2023-04-01T03:08:29;16.75;;;4.82;;
17935;SDS011;9093;52.062;4.508;2023-04-01T03:11:10;16.25;;;5.22;;
17935;SDS011;9093;52.062;4.508;2023-04-01T03:13:51;12.25;;;4.95;;
17935;SDS011;9093;52.062;4.508;2023-04-01T03:16:32;9.93;;;4.38;;
17935;SDS011;9093;52.062;4.508;2023-04-01T03:19:12;14.32;;;4.28;;
17935;SDS011;9093;52.062;4.508;2023-04-01T03:21:52;17.90;;;4.95;;
17935;SDS011;9093;52.062;4.508;2023-04-01T03:24:33;16.20;;;5.07;;
17935;SDS011;9093;52.062;4.508;2023-04-01T03:27:13;23.05;;;4.78;;
17935;SDS011;9093;52.062;4.508;2023-04-01T03:29:54;9.70;;;4.07;;
17935;SDS011;9093;52.062;4.508;2023-04-01T03:32:34;16.73;;;3.67;;
17935;SDS011;9093;52.062;4.508;2023-04-01T03:35:14;16.08;;;3.85;;
17935;SDS011;9093;52.062;4.508;2023-04-01T03:37:55;14.23;;;4.60;;
17935;SDS011;9093;52.062;4.508;2023-04-01T03:40:36;14.98;;;5.78;;
17935;SDS011;9093;52.062;4.508;2023-04-01T03:43:18;10.40;;;3.47;;
17935;SDS011;9093;52.062;4.508;2023-04-01T03:45:58;13.70;;;3.67;;
17935;SDS011;9093;52.062;4.508;2023-04-01T03:48:38;10.00;;;4.00;;
17935;SDS011;9093;52.062;4.508;2023-04-01T03:51:19;9.13;;;3.17;;
17935;SDS011;9093;52.062;4.508;2023-04-01T03:53:59;11.73;;;3.90;;
17935;SDS011;9093;52.062;4.508;2023-04-01T03:56:39;9.52;;;3.78;;
17935;SDS011;9093;52.062;4.508;2023-04-01T03:59:20;12.93;;;3.90;;
17935;SDS011;9093;52.062;4.508;2023-04-01T04:02:00;11.73;;;4.43;;
17935;SDS011;9093;52.062;4.508;2023-04-01T04:04:41;13.57;;;4.90;;
17935;SDS011;9093;52.062;4.508;2023-04-01T04:07:22;19.23;;;4.70;;
17935;SDS011;9093;52.062;4.508;2023-04-01T04:10:03;14.48;;;5.03;;
17935;SDS011;9093;52.062;4.508;2023-04-01T04:12:43;13.02;;;4.78;;
17935;SDS011;9093;52.062;4.508;2023-04-01T04:15:23;12.18;;;4.53;;
17935;SDS011;9093;52.062;4.508;2023-04-01T04:18:04;23.02;;;5.63;;
17935;SDS011;9093;52.062;4.508;2023-04-01T04:20:45;11.13;;;5.88;;
17935;SDS011;9093;52.062;4.508;2023-04-01T04:23:28;16.05;;;5.75;;
17935;SDS011;9093;52.062;4.508;2023-04-01T04:26:11;13.23;;;5.50;;
17935;SDS011;9093;52.062;4.508;2023-04-01T04:28:53;11.23;;;5.50;;
17935;SDS011;9093;52.062;4.508;2023-04-01T04:31:34;18.15;;;5.28;;
17935;SDS011;9093;52.062;4.508;2023-04-01T04:34:15;17.58;;;5.10;;
17935;SDS011;9093;52.062;4.508;2023-04-01T04:36:55;15.35;;;6.20;;
17935;SDS011;9093;52.062;4.508;2023-04-01T04:39:35;17.30;;;5.13;;
17935;SDS011;9093;52.062;4.508;2023-04-01T04:42:16;17.85;;;5.57;;
17935;SDS011;9093;52.062;4.508;2023-04-01T04:44:56;17.02;;;5.95;;
17935;SDS011;9093;52.062;4.508;2023-04-01T04:47:36;26.73;;;6.72;;
17935;SDS011;9093;52.062;4.508;2023-04-01T04:50:16;13.93;;;5.18;;
17935;SDS011;9093;52.062;4.508;2023-04-01T04:52:57;17.67;;;6.03;;
17935;SDS011;9093;52.062;4.508;2023-04-01T04:55:38;17.98;;;5.57;;
17935;SDS011;9093;52.062;4.508;2023-04-01T04:58:23;9.05;;;5.13;;
17935;SDS011;9093;52.062;4.508;2023-04-01T05:01:07;11.70;;;5.47;;
17935;SDS011;9093;52.062;4.508;2023-04-01T05:03:52;14.27;;;4.82;;
17935;SDS011;9093;52.062;4.508;2023-04-01T05:06:32;9.45;;;4.28;;
17935;SDS011;9093;52.062;4.508;2023-04-01T05:09:12;12.30;;;4.97;;
17935;SDS011;9093;52.062;4.508;2023-04-01T05:11:53;14.35;;;5.28;;
17935;SDS011;9093;52.062;4.508;2023-04-01T05:14:33;17.58;;;4.82;;
17935;SDS011;9093;52.062;4.508;2023-04-01T05:17:14;17.42;;;4.85;;
17935;SDS011;9093;52.062;4.508;2023-04-01T05:19:54;13.63;;;5.68;;
17935;SDS011;9093;52.062;4.508;2023-04-01T05:22:34;17.15;;;4.95;;
17935;SDS011;9093;52.062;4.508;2023-04-01T05:25:15;13.43;;;4.75;;
17935;SDS011;9093;52.062;4.508;2023-04-01T05:27:55;10.68;;;4.53;;
17935;SDS011;9093;52.062;4.508;2023-04-01T05:30:35;16.13;;;5.07;;
17935;SDS011;9093;52.062;4.508;2023-04-01T05:33:16;17.20;;;5.30;;
17935;SDS011;9093;52.062;4.508;2023-04-01T05:35:56;16.02;;;5.28;;
17935;SDS011;9093;52.062;4.508;2023-04-01T05:38:44;18.73;;;5.35;;
17935;SDS011;9093;52.062;4.508;2023-04-01T05:41:26;13.63;;;4.90;;
17935;SDS011;9093;52.062;4.508;2023-04-01T05:44:06;14.82;;;5.10;;
17935;SDS011;9093;52.062;4.508;2023-04-01T05:46:46;11.63;;;5.00;;
17935;SDS011;9093;52.062;4.508;2023-04-01T05:49:27;10.15;;;4.13;;
17935;SDS011;9093;52.062;4.508;2023-04-01T05:52:07;12.10;;;4.57;;
17935;SDS011;9093;52.062;4.508;2023-04-01T05:54:48;18.83;;;4.93;;
17935;SDS011;9093;52.062;4.508;2023-04-01T05:57:28;18.60;;;6.30;;
17935;SDS011;9093;52.062;4.508;2023-04-01T06:00:09;17.60;;;6.38;;
17935;SDS011;9093;52.062;4.508;2023-04-01T06:02:50;17.98;;;5.50;;
17935;SDS011;9093;52.062;4.508;2023-04-01T06:05:50;21.95;;;6.47;;
17935;SDS011;9093;52.062;4.508;2023-04-01T06:08:31;17.92;;;5.50;;
17935;SDS011;9093;52.062;4.508;2023-04-01T06:22:54;11.30;;;5.30;;
17935;SDS011;9093;52.062;4.508;2023-04-01T06:46:52;13.25;;;4.90;;
17935;SDS011;9093;52.062;4.508;2023-04-01T06:56:09;10.02;;;4.55;;
17935;SDS011;9093;52.062;4.508;2023-04-01T06:58:55;13.18;;;4.82;;
17935;SDS011;9093;52.062;4.508;2023-04-01T07:01:43;16.35;;;4.68;;
17935;SDS011;9093;52.062;4.508;2023-04-01T07:04:29;10.15;;;4.30;;
17935;SDS011;9093;52.062;4.508;2023-04-01T07:07:27;16.73;;;5.00;;
17935;SDS011;9093;52.062;4.508;2023-04-01T07:10:20;14.48;;;4.40;;
17935;SDS011;9093;52.062;4.508;2023-04-01T07:13:15;7.78;;;4.00;;
17935;SDS011;9093;52.062;4.508;2023-04-01T07:16:07;12.77;;;5.30;;
17935;SDS011;9093;52.062;4.508;2023-04-01T07:18:54;13.07;;;4.70;;
17935;SDS011;9093;52.062;4.508;2023-04-01T07:21:51;8.02;;;3.78;;
17935;SDS011;9093;52.062;4.508;2023-04-01T07:24:39;6.90;;;3.50;;
17935;SDS011;9093;52.062;4.508;2023-04-01T07:27:23;7.63;;;3.33;;
17935;SDS011;9093;52.062;4.508;2023-04-01T07:30:12;8.40;;;3.53;;
17935;SDS011;9093;52.062;4.508;2023-04-01T07:35:57;9.40;;;4.20;;
17935;SDS011;9093;52.062;4.508;2023-04-01T07:41:51;10.35;;;4.35;;
17935;SDS011;9093;52.062;4.508;2023-04-01T07:44:56;13.30;;;4.65;;
17935;SDS011;9093;52.062;4.508;2023-04-01T07:47:49;11.50;;;4.00;;
17935;SDS011;9093;52.062;4.508;2023-04-01T07:53:38;15.10;;;4.38;;
17935;SDS011;9093;52.062;4.508;2023-04-01T07:56:47;11.93;;;5.10;;
17935;SDS011;9093;52.062;4.508;2023-04-01T08:00:01;14.52;;;5.93;;
17935;SDS011;9093;52.062;4.508;2023-04-01T08:05:58;13.20;;;4.97;;
17935;SDS011;9093;52.062;4.508;2023-04-01T08:14:58;10.88;;;4.13;;
17935;SDS011;9093;52.062;4.508;2023-04-01T08:20:46;13.50;;;4.93;;
17935;SDS011;9093;52.062;4.508;2023-04-01T08:23:36;22.33;;;5.25;;
17935;SDS011;9093;52.062;4.508;2023-04-01T08:26:23;15.00;;;5.25;;
17935;SDS011;9093;52.062;4.508;2023-04-01T08:29:21;13.18;;;3.75;;
17935;SDS011;9093;52.062;4.508;2023-04-01T08:35:29;8.48;;;3.63;;
17935;SDS011;9093;52.062;4.508;2023-04-01T08:38:16;13.00;;;4.43;;
17935;SDS011;9093;52.062;4.508;2023-04-01T08:41:01;7.97;;;3.83;;
17935;SDS011;9093;52.062;4.508;2023-04-01T09:16:34;21.85;;;5.55;;
17935;SDS011;9093;52.062;4.508;2023-04-01T09:28:07;13.25;;;4.70;;
17935;SDS011;9093;52.062;4.508;2023-04-01T09:37:21;12.40;;;2.95;;
17935;SDS011;9093;52.062;4.508;2023-04-01T09:40:26;7.40;;;2.45;;
17935;SDS011;9093;52.062;4.508;2023-04-01T09:43:21;12.52;;;4.05;;
17935;SDS011;9093;52.062;4.508;2023-04-01T09:46:12;7.28;;;3.00;;
17935;SDS011;9093;52.062;4.508;2023-04-01T09:49:07;8.88;;;3.17;;
17935;SDS011;9093;52.062;4.508;2023-04-01T09:51:56;14.57;;;4.00;;
17935;SDS011;9093;52.062;4.508;2023-04-01T10:01:10;12.50;;;3.75;;
17935;SDS011;9093;52.062;4.508;2023-04-01T10:11:11;17.67;;;4.65;;
17935;SDS011;9093;52.062;4.508;2023-04-01T10:23:22;15.68;;;4.55;;
17935;SDS011;9093;52.062;4.508;2023-04-01T10:29:15;14.88;;;4.93;;
17935;SDS011;9093;52.062;4.508;2023-04-01T10:35:44;10.63;;;4.15;;
17935;SDS011;9093;52.062;4.508;2023-04-01T11:03:06;18.40;;;4.53;;
17935;SDS011;9093;52.062;4.508;2023-04-01T11:23:13;9.45;;;4.65;;
17935;SDS011;9093;52.062;4.508;2023-04-01T11:25:52;15.65;;;4.40;;
17935;SDS011;9093;52.062;4.508;2023-04-01T11:34:50;8.57;;;3.53;;
17935;SDS011;9093;52.062;4.508;2023-04-01T11:37:55;6.95;;;3.38;;
17935;SDS011;9093;52.062;4.508;2023-04-01T11:41:19;22.13;;;4.65;;
17935;SDS011;9093;52.062;4.508;2023-04-01T11:44:12;5.03;;;3.20;;
17935;SDS011;9093;52.062;4.508;2023-04-01T11:49:56;13.05;;;5.10;;
17935;SDS011;9093;52.062;4.508;2023-04-01T12:05:14;12.57;;;4.07;;
17935;SDS011;9093;52.062;4.508;2023-04-01T12:08:25;7.45;;;2.67;;
17935;SDS011;9093;52.062;4.508;2023-04-01T12:11:19;7.07;;;2.63;;
17935;SDS011;9093;52.062;4.508;2023-04-01T12:20:54;9.93;;;3.50;;
17935;SDS011;9093;52.062;4.508;2023-04-01T12:24:29;10.98;;;3.85;;
17935;SDS011;9093;52.062;4.508;2023-04-01T12:27:06;13.20;;;4.28;;
17935;SDS011;9093;52.062;4.508;2023-04-01T12:33:21;16.60;;;4.32;;
17935;SDS011;9093;52.062;4.508;2023-04-01T12:36:25;14.27;;;5.30;;
17935;SDS011;9093;52.062;4.508;2023-04-01T12:46:05;21.58;;;4.35;;
17935;SDS011;9093;52.062;4.508;2023-04-01T13:00:53;11.52;;;3.55;;
17935;SDS011;9093;52.062;4.508;2023-04-01T13:15:24;12.20;;;4.10;;
17935;SDS011;9093;52.062;4.508;2023-04-01T13:18:14;14.13;;;3.97;;
17935;SDS011;9093;52.062;4.508;2023-04-01T13:21:18;11.32;;;3.38;;
17935;SDS011;9093;52.062;4.508;2023-04-01T13:30:02;10.27;;;3.55;;
17935;SDS011;9093;52.062;4.508;2023-04-01T13:33:16;10.32;;;3.00;;
17935;SDS011;9093;52.062;4.508;2023-04-01T13:43:08;10.23;;;2.85;;
17935;SDS011;9093;52.062;4.508;2023-04-01T13:45:55;6.72;;;3.08;;
17935;SDS011;9093;52.062;4.508;2023-04-01T13:51:46;7.70;;;3.15;;
17935;SDS011;9093;52.062;4.508;2023-04-01T13:57:33;6.53;;;3.22;;
17935;SDS011;9093;52.062;4.508;2023-04-01T14:09:32;7.32;;;2.47;;
17935;SDS011;9093;52.062;4.508;2023-04-01T14:21:13;13.85;;;3.17;;
17935;SDS011;9093;52.062;4.508;2023-04-01T14:24:17;10.18;;;2.50;;
17935;SDS011;9093;52.062;4.508;2023-04-01T14:27:13;4.78;;;2.63;;
17935;SDS011;9093;52.062;4.508;2023-04-01T14:30:18;10.73;;;2.38;;
17935;SDS011;9093;52.062;4.508;2023-04-01T14:33:05;9.82;;;3.22;;
17935;SDS011;9093;52.062;4.508;2023-04-01T14:48:33;7.95;;;2.08;;
17935;SDS011;9093;52.062;4.508;2023-04-01T14:54:17;5.60;;;2.50;;
17935;SDS011;9093;52.062;4.508;2023-04-01T14:57:12;5.05;;;2.78;;
17935;SDS011;9093;52.062;4.508;2023-04-01T15:00:09;13.02;;;3.20;;
17935;SDS011;9093;52.062;4.508;2023-04-01T15:02:59;8.73;;;2.53;;
17935;SDS011;9093;52.062;4.508;2023-04-01T15:08:51;7.82;;;2.35;;
17935;SDS011;9093;52.062;4.508;2023-04-01T15:11:44;6.95;;;2.50;;
17935;SDS011;9093;52.062;4.508;2023-04-01T15:14:36;4.53;;;2.00;;
17935;SDS011;9093;52.062;4.508;2023-04-01T15:23:43;11.65;;;3.15;;
17935;SDS011;9093;52.062;4.508;2023-04-01T15:32:21;7.32;;;2.80;;
17935;SDS011;9093;52.062;4.508;2023-04-01T15:35:28;13.65;;;2.80;;
17935;SDS011;9093;52.062;4.508;2023-04-01T15:38:25;10.27;;;3.13;;
17935;SDS011;9093;52.062;4.508;2023-04-01T15:41:35;8.82;;;2.47;;
17935;SDS011;9093;52.062;4.508;2023-04-01T15:45:03;10.88;;;2.65;;
17935;SDS011;9093;52.062;4.508;2023-04-01T15:47:34;9.70;;;2.80;;
17935;SDS011;9093;52.062;4.508;2023-04-01T15:53:34;4.63;;;2.97;;
17935;SDS011;9093;52.062;4.508;2023-04-01T15:59:27;8.75;;;3.72;;
17935;SDS011;9093;52.062;4.508;2023-04-01T16:11:24;6.78;;;3.40;;
17935;SDS011;9093;52.062;4.508;2023-04-01T16:14:41;5.10;;;3.05;;
17935;SDS011;9093;52.062;4.508;2023-04-01T16:17:49;9.35;;;4.03;;
17935;SDS011;9093;52.062;4.508;2023-04-01T16:23:38;8.00;;;3.35;;
17935;SDS011;9093;52.062;4.508;2023-04-01T16:26:24;9.60;;;3.90;;
17935;SDS011;9093;52.062;4.508;2023-04-01T16:29:24;7.30;;;3.40;;
17935;SDS011;9093;52.062;4.508;2023-04-01T16:35:23;5.70;;;3.25;;
17935;SDS011;9093;52.062;4.508;2023-04-01T16:41:11;6.40;;;2.83;;
17935;SDS011;9093;52.062;4.508;2023-04-01T16:43:55;7.22;;;2.58;;
17935;SDS011;9093;52.062;4.508;2023-04-01T16:46:40;7.28;;;2.83;;
17935;SDS011;9093;52.062;4.508;2023-04-01T16:49:36;4.03;;;2.53;;
17935;SDS011;9093;52.062;4.508;2023-04-01T16:52:36;4.80;;;3.10;;
17935;SDS011;9093;52.062;4.508;2023-04-01T16:56:11;5.53;;;3.38;;
17935;SDS011;9093;52.062;4.508;2023-04-01T17:10:40;5.13;;;3.17;;
17935;SDS011;9093;52.062;4.508;2023-04-01T17:13:46;4.95;;;2.58;;
17935;SDS011;9093;52.062;4.508;2023-04-01T17:16:50;5.72;;;3.15;;
17935;SDS011;9093;52.062;4.508;2023-04-01T17:22:31;5.63;;;3.10;;
17935;SDS011;9093;52.062;4.508;2023-04-01T17:25:31;7.43;;;3.25;;
17935;SDS011;9093;52.062;4.508;2023-04-01T17:34:35;8.18;;;2.90;;
17935;SDS011;9093;52.062;4.508;2023-04-01T17:46:03;6.93;;;2.80;;
17935;SDS011;9093;52.062;4.508;2023-04-01T17:49:02;5.68;;;2.92;;
17935;SDS011;9093;52.062;4.508;2023-04-01T17:52:16;5.30;;;3.03;;
17935;SDS011;9093;52.062;4.508;2023-04-01T18:04:34;6.28;;;3.42;;
17935;SDS011;9093;52.062;4.508;2023-04-01T18:10:26;6.43;;;3.13;;
17935;SDS011;9093;52.062;4.508;2023-04-01T18:22:19;7.63;;;3.17;;
17935;SDS011;9093;52.062;4.508;2023-04-01T18:31:19;4.53;;;2.40;;
17935;SDS011;9093;52.062;4.508;2023-04-01T18:36:53;3.35;;;2.38;;
17935;SDS011;9093;52.062;4.508;2023-04-01T18:39:40;6.10;;;3.17;;
17935;SDS011;9093;52.062;4.508;2023-04-01T18:45:23;6.63;;;2.80;;
17935;SDS011;9093;52.062;4.508;2023-04-01T18:54:31;4.35;;;2.83;;
17935;SDS011;9093;52.062;4.508;2023-04-01T18:57:20;4.40;;;2.92;;
17935;SDS011;9093;52.062;4.508;2023-04-01T19:00:04;6.93;;;3.10;;
17935;SDS011;9093;52.062;4.508;2023-04-01T19:05:56;4.40;;;2.72;;
17935;SDS011;9093;52.062;4.508;2023-04-01T19:08:41;5.22;;;2.53;;
17935;SDS011;9093;52.062;4.508;2023-04-01T19:11:40;6.53;;;3.00;;
17935;SDS011;9093;52.062;4.508;2023-04-01T19:20:31;5.22;;;3.17;;
17935;SDS011;9093;52.062;4.508;2023-04-01T19:26:05;4.90;;;2.97;;
17935;SDS011;9093;52.062;4.508;2023-04-01T19:32:10;4.72;;;2.90;;
17935;SDS011;9093;52.062;4.508;2023-04-01T19:41:30;6.07;;;2.83;;
17935;SDS011;9093;52.062;4.508;2023-04-01T19:44:30;6.25;;;2.55;;
17935;SDS011;9093;52.062;4.508;2023-04-01T19:51:03;4.30;;;2.88;;
17935;SDS011;9093;52.062;4.508;2023-04-01T19:56:57;7.82;;;3.75;;
17935;SDS011;9093;52.062;4.508;2023-04-01T20:00:07;5.47;;;3.28;;
17935;SDS011;9093;52.062;4.508;2023-04-01T20:05:51;7.88;;;3.75;;
17935;SDS011;9093;52.062;4.508;2023-04-01T20:18:19;5.13;;;2.83;;
17935;SDS011;9093;52.062;4.508;2023-04-01T20:21:06;9.82;;;3.83;;
17935;SDS011;9093;52.062;4.508;2023-04-01T20:24:05;5.05;;;3.00;;
17935;SDS011;9093;52.062;4.508;2023-04-01T20:27:02;5.75;;;3.38;;
17935;SDS011;9093;52.062;4.508;2023-04-01T20:30:24;8.18;;;4.20;;
17935;SDS011;9093;52.062;4.508;2023-04-01T20:36:16;9.77;;;3.88;;
17935;SDS011;9093;52.062;4.508;2023-04-01T20:45:18;6.35;;;3.38;;
17935;SDS011;9093;52.062;4.508;2023-04-01T20:51:06;7.25;;;3.67;;
17935;SDS011;9093;52.062;4.508;2023-04-01T20:57:04;6.75;;;3.30;;
17935;SDS011;9093;52.062;4.508;2023-04-01T21:03:23;5.43;;;3.28;;
17935;SDS011;9093;52.062;4.508;2023-04-01T21:06:20;8.15;;;3.60;;
17935;SDS011;9093;52.062;4.508;2023-04-01T21:15:38;8.10;;;4.10;;
17935;SDS011;9093;52.062;4.508;2023-04-01T21:46:03;7.57;;;3.05;;
17935;SDS011;9093;52.062;4.508;2023-04-01T21:49:09;6.72;;;2.90;;
17935;SDS011;9093;52.062;4.508;2023-04-01T22:04:20;5.20;;;2.67;;
17935;SDS011;9093;52.062;4.508;2023-04-01T22:12:59;4.80;;;2.65;;
17935;SDS011;9093;52.062;4.508;2023-04-01T22:18:39;5.05;;;3.10;;
17935;SDS011;9093;52.062;4.508;2023-04-01T22:21:31;6.53;;;3.33;;
17935;SDS011;9093;52.062;4.508;2023-04-01T22:39:09;7.40;;;3.17;;
17935;SDS011;9093;52.062;4.508;2023-04-01T22:47:58;6.63;;;4.00;;
17935;SDS011;9093;52.062;4.508;2023-04-01T22:51:38;4.88;;;3.35;;
17935;SDS011;9093;52.062;4.508;2023-04-01T23:02:39;9.40;;;3.20;;
17935;SDS011;9093;52.062;4.508;2023-04-01T23:05:25;6.18;;;3.20;;
17935;SDS011;9093;52.062;4.508;2023-04-01T23:11:10;6.57;;;3.60;;
17935;SDS011;9093;52.062;4.508;2023-04-01T23:31:34;8.98;;;4.20;;
17935;SDS011;9093;52.062;4.508;2023-04-01T23:34:24;7.47;;;3.15;;
17935;SDS011;9093;52.062;4.508;2023-04-01T23:37:09;9.57;;;3.72;;
17935;SDS011;9093;52.062;4.508;2023-04-01T23:39:56;6.47;;;3.47;;
17935;SDS011;9093;52.062;4.508;2023-04-01T23:42:41;8.23;;;3.33;;
17935;SDS011;9093;52.062;4.508;2023-04-01T23:45:21;12.73;;;3.67;;
17935;SDS011;9093;52.062;4.508;2023-04-01T23:48:02;7.05;;;4.00;;
17935;SDS011;9093;52.062;4.508;2023-04-01T23:50:43;7.93;;;4.18;;
17935;SDS011;9093;52.062;4.508;2023-04-01T23:53:25;5.57;;;3.40;;
17935;SDS011;9093;52.062;4.508;2023-04-01T23:56:08;5.57;;;3.83;;
17935;SDS011;9093;52.062;4.508;2023-04-01T23:58:50;6.78;;;3.92;;
